createdAt,value
2023-03-17T00:01:54.741Z,1.27
2023-03-17T00:04:26.376Z,1.24
2023-03-17T00:06:53.530Z,1.18
2023-03-17T00:09:21.090Z,1.13
2023-03-17T00:11:48.162Z,1.15
2023-03-17T00:14:14.875Z,1.22
2023-03-17T00:16:44.206Z,1.24
2023-03-17T00:19:21.790Z,1.19
2023-03-17T00:21:49.110Z,1.18
2023-03-17T00:24:15.949Z,1.13
2023-03-17T00:26:43.323Z,1.11
2023-03-17T00:29:10.195Z,1.08
2023-03-17T00:31:38.071Z,1.07
2023-03-17T00:34:05.687Z,1.09
2023-03-17T00:36:33.643Z,1.04
2023-03-17T00:39:00.473Z,1.02
2023-03-17T00:41:27.302Z,1.03
2023-03-17T00:43:54.051Z,1.01
2023-03-17T00:46:35.768Z,0.98
2023-03-17T00:49:10.888Z,0.94
2023-03-17T00:51:37.353Z,0.93
2023-03-17T00:54:03.959Z,0.89
2023-03-17T00:56:31.010Z,0.93
2023-03-17T00:58:57.791Z,0.99
2023-03-17T01:01:24.285Z,0.99
2023-03-17T01:03:51.280Z,0.97
2023-03-17T01:06:17.809Z,0.95
2023-03-17T01:08:44.860Z,0.94
2023-03-17T01:11:17.767Z,0.91
2023-03-17T01:13:44.747Z,0.76
2023-03-17T01:16:12.354Z,0.87
2023-03-17T01:18:39.662Z,0.82
2023-03-17T01:21:06.668Z,0.79
2023-03-17T01:23:33.407Z,0.81
2023-03-17T01:26:00.020Z,0.74
2023-03-17T01:28:26.525Z,0.74
2023-03-17T01:30:52.938Z,0.72
2023-03-17T01:33:19.510Z,0.61
2023-03-17T01:35:46.168Z,0.75
2023-03-17T01:38:14.897Z,0.78
2023-03-17T01:40:50.326Z,0.78
2023-03-17T01:43:28.109Z,0.80
2023-03-17T01:46:20.932Z,0.76
2023-03-17T01:48:55.547Z,0.72
2023-03-17T01:51:32.623Z,0.71
2023-03-17T01:54:00.058Z,0.71
2023-03-17T01:56:27.033Z,0.74
2023-03-17T01:58:55.153Z,0.77
2023-03-17T02:01:33.362Z,0.77
2023-03-17T02:04:01.067Z,0.73
2023-03-17T02:06:27.672Z,0.71
2023-03-17T02:08:54.075Z,0.75
2023-03-17T02:11:21.080Z,0.77
2023-03-17T02:13:47.497Z,0.73
2023-03-17T02:16:17.688Z,0.73
2023-03-17T02:18:44.866Z,0.70
2023-03-17T02:21:37.405Z,0.66
2023-03-17T02:24:10.606Z,0.66
2023-03-17T02:26:38.680Z,0.61
2023-03-17T02:29:05.955Z,0.57
2023-03-17T02:31:33.501Z,0.53
2023-03-17T02:33:59.916Z,0.51
2023-03-17T02:36:26.413Z,0.51
2023-03-17T02:38:53.207Z,0.47
2023-03-17T02:41:19.842Z,0.41
2023-03-17T02:43:46.413Z,0.37
2023-03-17T02:46:12.906Z,0.35
2023-03-17T02:48:39.850Z,0.31
2023-03-17T02:51:06.499Z,0.26
2023-03-17T02:53:32.983Z,0.26
2023-03-17T02:55:59.606Z,0.24
2023-03-17T02:58:26.151Z,0.22
2023-03-17T03:00:53.126Z,0.19
2023-03-17T03:03:19.575Z,0.15
2023-03-17T03:05:47.261Z,0.15
2023-03-17T03:08:13.870Z,0.10
2023-03-17T03:10:41.669Z,0.11
2023-03-17T03:13:08.164Z,0.10
2023-03-17T03:15:34.564Z,0.10
2023-03-17T03:18:01.043Z,0.13
2023-03-17T03:20:27.856Z,0.14
2023-03-17T03:22:54.529Z,0.11
2023-03-17T03:25:21.296Z,0.11
2023-03-17T03:27:47.742Z,0.12
2023-03-17T03:30:14.507Z,0.11
2023-03-17T03:32:40.997Z,0.12
2023-03-17T03:35:08.305Z,0.09
2023-03-17T03:37:34.749Z,0.06
2023-03-17T03:40:01.373Z,0.05
2023-03-17T03:42:27.818Z,0.04
2023-03-17T03:44:54.223Z,0.04
2023-03-17T03:47:20.715Z,0.08
2023-03-17T03:49:47.218Z,0.08
2023-03-17T03:52:13.667Z,0.07
2023-03-17T03:54:40.107Z,0.06
2023-03-17T03:57:06.557Z,0.04
2023-03-17T03:59:33.034Z,0.03
2023-03-17T04:01:59.431Z,0.04
2023-03-17T04:04:25.951Z,0.05
2023-03-17T04:06:52.412Z,0.00
2023-03-17T04:09:18.797Z,0.05
2023-03-17T04:11:45.914Z,0.03
2023-03-17T04:14:12.651Z,0.00
2023-03-17T04:16:41.564Z,0.04
2023-03-17T04:19:09.698Z,0.07
2023-03-17T04:21:36.114Z,0.08
2023-03-17T04:24:05.062Z,0.07
2023-03-17T04:26:32.124Z,0.11
2023-03-17T04:28:58.888Z,0.10
2023-03-17T04:31:25.889Z,0.10
2023-03-17T04:33:52.510Z,0.05
2023-03-17T04:36:21.642Z,0.10
2023-03-17T04:38:48.049Z,0.14
2023-03-17T04:41:15.323Z,0.12
2023-03-17T04:43:41.994Z,0.13
2023-03-17T04:46:09.089Z,0.14
2023-03-17T04:48:35.997Z,0.15
2023-03-17T04:51:02.726Z,0.11
2023-03-17T04:53:29.178Z,0.16
2023-03-17T04:55:56.548Z,0.16
2023-03-17T04:58:30.416Z,0.14
2023-03-17T05:00:57.994Z,0.15
2023-03-17T05:03:27.510Z,0.16
2023-03-17T05:05:54.277Z,0.18
2023-03-17T05:08:20.932Z,0.18
2023-03-17T05:10:47.343Z,0.15
2023-03-17T05:13:13.808Z,0.18
2023-03-17T05:15:40.944Z,0.17
2023-03-17T05:18:08.209Z,0.15
2023-03-17T05:20:34.599Z,0.13
2023-03-17T05:23:01.284Z,0.19
2023-03-17T05:25:27.798Z,0.19
2023-03-17T05:27:54.368Z,0.17
2023-03-17T05:30:20.918Z,0.15
2023-03-17T05:32:47.443Z,0.12
2023-03-17T05:35:14.004Z,0.14
2023-03-17T05:37:40.449Z,0.11
2023-03-17T05:40:08.324Z,0.11
2023-03-17T05:42:34.752Z,0.10
2023-03-17T05:45:01.187Z,0.10
2023-03-17T05:47:28.031Z,0.07
2023-03-17T05:49:54.477Z,0.08
2023-03-17T05:52:20.815Z,0.13
2023-03-17T05:54:48.955Z,0.15
2023-03-17T05:57:16.258Z,0.16
2023-03-17T05:59:42.804Z,0.20
2023-03-17T06:02:11.276Z,0.18
2023-03-17T06:04:38.918Z,0.18
2023-03-17T06:07:06.203Z,0.27
2023-03-17T06:09:33.565Z,0.27
2023-03-17T06:12:00.525Z,0.35
2023-03-17T06:14:27.317Z,0.39
2023-03-17T06:16:54.317Z,0.38
2023-03-17T06:19:20.903Z,0.44
2023-03-17T06:21:47.397Z,0.54
2023-03-17T06:24:14.057Z,0.53
2023-03-17T06:26:41.070Z,0.58
2023-03-17T06:29:11.714Z,0.62
2023-03-17T06:31:39.755Z,0.69
2023-03-17T06:34:06.632Z,0.74
2023-03-17T06:36:33.518Z,0.77
2023-03-17T06:39:00.511Z,0.83
2023-03-17T06:41:27.547Z,0.86
2023-03-17T06:43:54.097Z,0.99
2023-03-17T06:46:20.928Z,1.08
2023-03-17T06:48:48.390Z,1.15
2023-03-17T06:51:14.846Z,1.23
2023-03-17T06:53:41.465Z,1.39
2023-03-17T06:56:12.582Z,1.63
2023-03-17T06:58:43.724Z,1.84
2023-03-17T07:01:10.471Z,1.97
2023-03-17T07:03:38.475Z,1.99
2023-03-17T07:06:05.191Z,2.15
2023-03-17T07:08:31.982Z,2.30
2023-03-17T07:10:58.944Z,2.51
2023-03-17T07:13:25.790Z,2.66
2023-03-17T07:15:54.599Z,2.77
2023-03-17T07:18:21.784Z,2.83
2023-03-17T07:20:48.297Z,2.97
2023-03-17T07:23:24.412Z,3.12
2023-03-17T07:25:51.536Z,3.16
2023-03-17T07:28:19.131Z,3.29
2023-03-17T07:30:46.942Z,3.41
2023-03-17T07:33:14.578Z,3.54
2023-03-17T07:35:41.585Z,3.71
2023-03-17T07:38:08.175Z,3.85
2023-03-17T07:40:35.470Z,3.78
2023-03-17T07:43:02.530Z,4.06
2023-03-17T07:45:29.507Z,4.32
2023-03-17T07:47:56.073Z,4.54
2023-03-17T07:50:23.135Z,4.75
2023-03-17T07:52:49.608Z,4.88
2023-03-17T07:55:16.559Z,5.06
2023-03-17T07:57:43.386Z,5.23
2023-03-17T08:00:10.579Z,5.46
2023-03-17T08:02:37.524Z,5.58
2023-03-17T08:05:04.584Z,5.89
2023-03-17T08:07:31.613Z,6.28
2023-03-17T08:09:59.769Z,6.37
2023-03-17T08:12:26.237Z,6.64
2023-03-17T08:14:53.459Z,6.81
2023-03-17T08:17:20.123Z,7.00
2023-03-17T08:19:46.884Z,7.15
2023-03-17T08:22:13.426Z,7.39
2023-03-17T08:24:42.829Z,7.52
2023-03-17T08:27:09.498Z,7.78
2023-03-17T08:29:36.026Z,7.93
2023-03-17T08:32:03.363Z,8.19
2023-03-17T08:34:30.025Z,8.54
2023-03-17T08:36:56.630Z,8.66
2023-03-17T08:39:23.032Z,8.90
2023-03-17T08:41:49.516Z,8.90
2023-03-17T08:44:16.570Z,9.15
2023-03-17T08:46:43.124Z,9.24
2023-03-17T08:49:10.501Z,9.62
2023-03-17T08:51:37.636Z,9.85
2023-03-17T08:54:05.729Z,9.93
2023-03-17T08:56:32.656Z,9.80
2023-03-17T08:58:59.338Z,9.93
2023-03-17T09:01:27.307Z,9.99
2023-03-17T09:03:55.077Z,10.17
2023-03-17T09:06:22.450Z,10.27
2023-03-17T09:08:55.055Z,10.35
2023-03-17T09:11:24.909Z,10.72
2023-03-17T09:13:51.758Z,10.94
2023-03-17T09:16:18.697Z,10.71
2023-03-17T09:18:46.693Z,10.78
2023-03-17T09:21:14.420Z,10.90
2023-03-17T09:23:41.513Z,11.00
2023-03-17T09:26:10.132Z,11.04
2023-03-17T09:28:37.261Z,11.02
2023-03-17T09:31:06.312Z,11.10
2023-03-17T09:33:33.315Z,11.52
2023-03-17T09:35:59.905Z,11.61
2023-03-17T09:38:27.516Z,11.69
2023-03-17T09:41:01.729Z,12.01
2023-03-17T09:44:06.656Z,12.07
2023-03-17T09:46:33.106Z,11.90
2023-03-17T09:49:03.787Z,11.87
2023-03-17T09:51:32.359Z,11.92
2023-03-17T09:54:27.532Z,11.85
2023-03-17T09:57:16.667Z,11.87
2023-03-17T09:59:47.315Z,11.88
2023-03-17T10:02:22.951Z,12.01
2023-03-17T10:04:49.976Z,11.72
2023-03-17T10:07:23.411Z,11.70
2023-03-17T10:10:03.352Z,11.81
2023-03-17T10:12:50.252Z,11.88
2023-03-17T10:15:43.082Z,11.84
2023-03-17T10:18:15.940Z,11.94
2023-03-17T10:21:04.352Z,11.93
2023-03-17T10:23:33.683Z,11.87
2023-03-17T10:26:24.539Z,11.87
2023-03-17T10:28:51.478Z,11.80
2023-03-17T10:31:28.715Z,11.68
2023-03-17T10:33:58.378Z,11.73
2023-03-17T10:36:40.059Z,11.89
2023-03-17T10:39:08.145Z,11.99
2023-03-17T10:41:41.636Z,12.07
2023-03-17T10:44:11.062Z,12.21
2023-03-17T10:46:40.048Z,12.30
2023-03-17T10:49:16.842Z,12.38
2023-03-17T10:51:46.336Z,12.53
2023-03-17T10:54:18.300Z,12.70
2023-03-17T10:56:48.946Z,12.61
2023-03-17T10:59:25.635Z,12.57
2023-03-17T11:02:00.537Z,12.52
2023-03-17T11:04:27.370Z,12.56
2023-03-17T11:07:00.153Z,12.66
2023-03-17T11:09:29.365Z,12.72
2023-03-17T11:12:08.897Z,13.03
2023-03-17T11:14:35.561Z,13.18
2023-03-17T11:17:12.597Z,13.20
2023-03-17T11:19:50.019Z,13.24
2023-03-17T11:22:24.099Z,13.41
2023-03-17T11:25:04.330Z,13.59
2023-03-17T11:27:34.862Z,13.82
2023-03-17T11:30:14.928Z,14.05
2023-03-17T11:32:47.907Z,14.02
2023-03-17T11:35:53.054Z,13.91
2023-03-17T11:38:29.729Z,14.19
2023-03-17T11:41:02.164Z,14.31
2023-03-17T11:43:45.502Z,14.51
2023-03-17T11:46:30.324Z,14.52
2023-03-17T11:49:20.461Z,14.70
2023-03-17T11:52:08.286Z,14.87
2023-03-17T11:54:56.635Z,14.88
2023-03-17T11:57:46.201Z,14.89
2023-03-17T12:00:27.500Z,15.06
2023-03-17T12:03:04.242Z,15.17
2023-03-17T12:05:31.567Z,15.27
2023-03-17T12:08:06.061Z,15.36
2023-03-17T12:10:40.448Z,15.41
2023-03-17T12:13:16.717Z,15.46
2023-03-17T12:15:43.557Z,15.47
2023-03-17T12:18:18.261Z,15.44
2023-03-17T12:21:01.554Z,15.43
2023-03-17T12:23:51.130Z,15.56
2023-03-17T12:26:35.079Z,15.70
2023-03-17T12:29:12.260Z,15.81
2023-03-17T12:31:48.803Z,15.64
2023-03-17T12:34:20.837Z,15.59
2023-03-17T12:36:48.730Z,15.65
2023-03-17T12:39:19.246Z,15.82
2023-03-17T12:42:24.723Z,15.91
2023-03-17T12:45:14.943Z,16.11
2023-03-17T12:47:59.808Z,16.15
2023-03-17T12:50:50.323Z,16.20
2023-03-17T12:53:31.562Z,16.27
2023-03-17T12:56:08.099Z,16.48
2023-03-17T12:58:40.372Z,16.81
2023-03-17T13:01:18.429Z,16.82
2023-03-17T13:04:14.537Z,16.77
2023-03-17T13:06:46.142Z,16.78
2023-03-17T13:09:31.851Z,16.79
2023-03-17T13:12:00.415Z,16.96
2023-03-17T13:14:47.610Z,17.04
2023-03-17T13:17:17.507Z,17.03
2023-03-17T13:20:08.739Z,16.86
2023-03-17T13:23:10.587Z,16.81
2023-03-17T13:25:41.326Z,16.79
2023-03-17T13:28:10.891Z,16.77
2023-03-17T13:30:37.589Z,16.67
2023-03-17T13:33:10.547Z,16.67
2023-03-17T13:35:42.086Z,16.78
2023-03-17T13:38:29.803Z,16.93
2023-03-17T13:41:13.812Z,16.96
2023-03-17T13:44:01.806Z,17.02
2023-03-17T13:46:37.548Z,17.12
2023-03-17T13:49:26.550Z,17.15
2023-03-17T13:52:03.442Z,17.20
2023-03-17T13:54:40.513Z,17.13
2023-03-17T13:57:25.647Z,17.14
2023-03-17T14:00:05.518Z,17.03
2023-03-17T14:02:35.135Z,16.80
2023-03-17T14:05:06.360Z,16.57
2023-03-17T14:07:45.540Z,16.44
2023-03-17T14:10:21.194Z,16.34
2023-03-17T14:13:06.141Z,16.29
2023-03-17T14:15:37.796Z,16.17
2023-03-17T14:18:15.390Z,16.00
2023-03-17T14:20:53.700Z,15.93
2023-03-17T14:23:21.395Z,15.92
2023-03-17T14:25:48.000Z,15.85
2023-03-17T14:28:19.127Z,15.75
2023-03-17T14:30:54.186Z,15.63
2023-03-17T14:33:34.560Z,15.48
2023-03-17T14:36:02.944Z,15.40
2023-03-17T14:38:32.162Z,15.34
2023-03-17T14:41:13.608Z,15.28
2023-03-17T14:43:41.881Z,15.16
2023-03-17T14:46:24.654Z,15.09
2023-03-17T14:48:59.893Z,15.01
2023-03-17T14:51:36.503Z,14.96
2023-03-17T14:54:27.613Z,14.92
2023-03-17T14:57:02.286Z,14.86
2023-03-17T14:59:36.173Z,14.79
2023-03-17T15:02:17.168Z,14.71
2023-03-17T15:04:53.560Z,14.69
2023-03-17T15:07:39.254Z,14.64
2023-03-17T15:10:20.017Z,14.56
2023-03-17T15:12:48.261Z,14.55
2023-03-17T15:15:28.651Z,14.50
2023-03-17T15:17:57.818Z,14.40
2023-03-17T15:20:25.131Z,14.41
2023-03-17T15:23:00.168Z,14.38
2023-03-17T15:25:39.867Z,14.35
2023-03-17T15:28:14.325Z,14.34
2023-03-17T15:30:47.692Z,14.31
2023-03-17T15:33:34.590Z,14.32
2023-03-17T15:36:01.562Z,14.30
2023-03-17T15:38:28.711Z,14.30
2023-03-17T15:40:55.667Z,14.30
2023-03-17T15:43:22.336Z,14.24
2023-03-17T15:45:59.842Z,14.27
2023-03-17T15:48:28.142Z,14.24
2023-03-17T15:50:56.707Z,14.18
2023-03-17T15:53:24.169Z,14.11
2023-03-17T15:55:51.122Z,14.05
2023-03-17T15:58:17.553Z,14.03
2023-03-17T16:00:57.303Z,13.92
2023-03-17T16:03:35.302Z,13.85
2023-03-17T16:06:03.984Z,13.82
2023-03-17T16:08:31.353Z,13.78
2023-03-17T16:10:57.908Z,13.68
2023-03-17T16:13:24.314Z,13.62
2023-03-17T16:15:55.011Z,13.55
2023-03-17T16:18:31.524Z,13.46
2023-03-17T16:20:58.193Z,13.39
2023-03-17T16:23:28.516Z,13.35
2023-03-17T16:26:04.617Z,13.28
2023-03-17T16:28:38.470Z,13.27
2023-03-17T16:31:30.225Z,13.17
2023-03-17T16:33:57.337Z,13.10
2023-03-17T16:36:25.424Z,12.99
2023-03-17T16:38:52.042Z,12.95
2023-03-17T16:41:24.334Z,12.85
2023-03-17T16:43:55.104Z,12.81
2023-03-17T16:46:22.703Z,12.73
2023-03-17T16:48:50.553Z,12.70
2023-03-17T16:51:17.978Z,12.61
2023-03-17T16:53:45.867Z,12.55
2023-03-17T16:56:19.082Z,12.50
2023-03-17T16:58:46.624Z,12.41
2023-03-17T17:01:17.793Z,12.38
2023-03-17T17:03:44.908Z,12.29
2023-03-17T17:06:14.258Z,12.21
2023-03-17T17:08:45.639Z,12.07
2023-03-17T17:11:13.451Z,12.00
2023-03-17T17:13:45.409Z,11.91
2023-03-17T17:16:30.290Z,11.83
2023-03-17T17:18:58.351Z,11.74
2023-03-17T17:21:26.254Z,11.69
2023-03-17T17:23:53.446Z,11.60
2023-03-17T17:26:21.120Z,11.54
2023-03-17T17:28:47.639Z,11.46
2023-03-17T17:31:14.095Z,11.38
2023-03-17T17:33:40.603Z,11.22
2023-03-17T17:36:13.419Z,11.10
2023-03-17T17:38:40.017Z,11.01
2023-03-17T17:41:09.033Z,10.90
2023-03-17T17:43:35.690Z,10.80
2023-03-17T17:46:02.314Z,10.62
2023-03-17T17:48:28.889Z,10.48
2023-03-17T17:50:56.863Z,10.35
2023-03-17T17:53:23.588Z,10.28
2023-03-17T17:55:50.499Z,10.14
2023-03-17T17:58:23.752Z,9.97
2023-03-17T18:00:51.489Z,9.88
2023-03-17T18:03:22.185Z,9.81
2023-03-17T18:05:48.701Z,9.76
2023-03-17T18:08:15.490Z,9.70
2023-03-17T18:10:41.991Z,9.72
2023-03-17T18:13:08.496Z,9.70
2023-03-17T18:15:35.009Z,9.72
2023-03-17T18:18:01.757Z,9.73
2023-03-17T18:20:28.248Z,9.67
2023-03-17T18:22:54.760Z,9.58
2023-03-17T18:25:21.413Z,9.49
2023-03-17T18:27:48.331Z,9.46
2023-03-17T18:30:26.578Z,9.45
2023-03-17T18:33:00.486Z,9.40
2023-03-17T18:35:28.629Z,9.30
2023-03-17T18:37:57.345Z,9.24
2023-03-17T18:40:26.039Z,9.20
2023-03-17T18:42:52.482Z,9.19
2023-03-17T18:45:19.212Z,9.19
2023-03-17T18:47:45.656Z,9.22
2023-03-17T18:50:14.490Z,9.19
2023-03-17T18:52:42.445Z,9.06
2023-03-17T18:55:11.123Z,8.96
2023-03-17T18:57:37.631Z,8.85
2023-03-17T19:00:05.628Z,8.80
2023-03-17T19:02:31.999Z,8.74
2023-03-17T19:04:58.426Z,8.68
2023-03-17T19:07:24.944Z,8.67
2023-03-17T19:09:51.699Z,8.58
2023-03-17T19:12:18.626Z,8.51
2023-03-17T19:14:45.490Z,8.40
2023-03-17T19:17:11.942Z,8.38
2023-03-17T19:19:41.234Z,8.32
2023-03-17T19:22:07.793Z,8.28
2023-03-17T19:24:37.059Z,8.23
2023-03-17T19:27:04.628Z,8.19
2023-03-17T19:29:32.427Z,8.16
2023-03-17T19:31:59.316Z,8.10
2023-03-17T19:34:27.134Z,8.09
2023-03-17T19:36:53.989Z,8.08
2023-03-17T19:39:21.051Z,8.08
2023-03-17T19:41:48.461Z,8.11
2023-03-17T19:44:14.937Z,8.12
2023-03-17T19:46:41.402Z,8.13
2023-03-17T19:49:07.923Z,8.12
2023-03-17T19:51:34.415Z,8.13
2023-03-17T19:54:00.904Z,8.13
2023-03-17T19:56:27.917Z,8.07
2023-03-17T19:58:54.949Z,8.08
2023-03-17T20:01:22.779Z,8.08
2023-03-17T20:03:49.409Z,8.05
2023-03-17T20:06:16.085Z,8.07
2023-03-17T20:08:44.159Z,8.08
2023-03-17T20:11:13.134Z,8.07
2023-03-17T20:13:39.910Z,8.07
2023-03-17T20:16:08.210Z,8.04
2023-03-17T20:18:34.954Z,8.00
2023-03-17T20:21:05.590Z,7.95
2023-03-17T20:23:32.868Z,7.94
2023-03-17T20:25:59.804Z,7.96
2023-03-17T20:28:27.708Z,7.94
2023-03-17T20:30:59.790Z,7.89
2023-03-17T20:33:26.558Z,7.80
2023-03-17T20:35:53.323Z,7.72
2023-03-17T20:38:19.833Z,7.68
2023-03-17T20:40:46.376Z,7.63
2023-03-17T20:43:13.018Z,7.62
2023-03-17T20:45:39.514Z,7.57
2023-03-17T20:48:06.409Z,7.49
2023-03-17T20:50:35.245Z,7.45
2023-03-17T20:53:02.480Z,7.39
2023-03-17T20:55:30.742Z,7.35
2023-03-17T20:57:58.741Z,7.30
2023-03-17T21:00:26.180Z,7.20
2023-03-17T21:02:53.126Z,7.15
2023-03-17T21:05:25.626Z,7.05
2023-03-17T21:07:52.607Z,7.00
2023-03-17T21:10:19.372Z,6.95
2023-03-17T21:12:46.971Z,6.89
2023-03-17T21:15:14.630Z,6.85
2023-03-17T21:17:42.277Z,6.80
2023-03-17T21:20:11.576Z,6.75
2023-03-17T21:22:40.067Z,6.63
2023-03-17T21:25:08.698Z,6.62
2023-03-17T21:27:37.710Z,6.58
2023-03-17T21:30:11.093Z,6.49
2023-03-17T21:32:38.025Z,6.46
2023-03-17T21:35:06.465Z,6.42
2023-03-17T21:37:32.857Z,6.39
2023-03-17T21:39:59.345Z,6.35
2023-03-17T21:42:27.167Z,6.32
2023-03-17T21:44:53.659Z,6.31
2023-03-17T21:47:20.118Z,6.25
2023-03-17T21:49:46.921Z,6.25
2023-03-17T21:52:14.931Z,6.22
2023-03-17T21:54:42.051Z,6.13
2023-03-17T21:57:08.794Z,6.02
2023-03-17T21:59:35.709Z,5.98
2023-03-17T22:02:02.882Z,5.91
2023-03-17T22:04:29.857Z,5.89
2023-03-17T22:06:57.027Z,5.89
2023-03-17T22:09:23.447Z,5.87
2023-03-17T22:11:49.992Z,5.79
2023-03-17T22:14:20.057Z,5.73
2023-03-17T22:16:47.924Z,5.73
2023-03-17T22:19:14.646Z,5.67
2023-03-17T22:21:42.118Z,5.53
2023-03-17T22:24:09.108Z,5.52
2023-03-17T22:26:35.802Z,5.52
2023-03-17T22:29:02.527Z,5.48
2023-03-17T22:31:30.053Z,5.49
2023-03-17T22:33:58.241Z,5.44
2023-03-17T22:36:25.992Z,5.46
2023-03-17T22:38:55.878Z,5.39
2023-03-17T22:41:25.838Z,5.39
2023-03-17T22:43:52.776Z,5.36
2023-03-17T22:46:20.602Z,5.38
2023-03-17T22:48:47.361Z,5.36
2023-03-17T22:51:18.110Z,5.28
2023-03-17T22:53:45.277Z,5.28
2023-03-17T22:56:13.024Z,5.20
2023-03-17T22:58:40.428Z,5.15
2023-03-17T23:01:08.023Z,5.10
2023-03-17T23:03:35.190Z,5.05
2023-03-17T23:06:03.803Z,4.98
2023-03-17T23:08:32.054Z,4.87
2023-03-17T23:11:00.678Z,4.84
2023-03-17T23:13:27.690Z,4.81
2023-03-17T23:15:54.146Z,4.80
2023-03-17T23:18:20.713Z,4.84
2023-03-17T23:20:47.667Z,4.78
2023-03-17T23:23:14.613Z,4.71
2023-03-17T23:25:41.258Z,4.68
2023-03-17T23:28:09.060Z,4.59
2023-03-17T23:30:36.981Z,4.69
2023-03-17T23:33:04.815Z,4.62
2023-03-17T23:35:31.543Z,4.56
2023-03-17T23:37:57.992Z,4.49
2023-03-17T23:40:24.524Z,4.42
2023-03-17T23:42:54.241Z,4.31
2023-03-17T23:45:23.168Z,4.31
2023-03-17T23:47:52.054Z,4.26
2023-03-17T23:50:19.416Z,4.27
2023-03-17T23:52:47.073Z,4.27
2023-03-17T23:55:14.474Z,4.22
2023-03-17T23:57:41.577Z,4.26
